createdAt,value
2019-01-06T00:00:00.158Z,99.90
2019-01-06T00:02:30.235Z,99.90
2019-01-06T00:05:02.717Z,99.90
2019-01-06T00:07:44.868Z,99.90
2019-01-06T00:10:20.726Z,99.90
2019-01-06T00:12:59.817Z,99.90
2019-01-06T00:15:49.374Z,99.90
2019-01-06T00:18:19.505Z,99.90
2019-01-06T00:20:58.077Z,99.90
2019-01-06T00:23:28.149Z,99.90
2019-01-06T00:26:16.373Z,99.90
2019-01-06T00:29:04.115Z,99.90
2019-01-06T00:31:36.695Z,99.90
2019-01-06T00:34:15.264Z,99.90
2019-01-06T00:36:50.642Z,99.90
2019-01-06T00:39:38.787Z,99.90
2019-01-06T00:42:20.341Z,99.90
2019-01-06T00:45:05.064Z,99.90
2019-01-06T00:47:37.828Z,99.90
2019-01-06T00:50:27.501Z,99.90
2019-01-06T00:53:06.542Z,99.90
2019-01-06T00:55:52.930Z,99.90
2019-01-06T00:58:25.673Z,99.90
2019-01-06T01:01:08.012Z,99.90
2019-01-06T01:03:52.869Z,99.90
2019-01-06T01:06:39.172Z,99.90
2019-01-06T01:09:54.313Z,99.90
2019-01-06T01:12:42.817Z,99.90
2019-01-06T01:15:27.985Z,99.90
2019-01-06T01:18:16.082Z,99.90
2019-01-06T01:20:49.061Z,99.90
2019-01-06T01:23:37.836Z,99.90
2019-01-06T01:26:30.045Z,99.90
2019-01-06T01:29:11.829Z,99.90
2019-01-06T01:32:04.179Z,99.90
2019-01-06T01:34:42.737Z,99.90
2019-01-06T01:37:15.440Z,99.90
2019-01-06T01:39:51.502Z,99.90
2019-01-06T01:42:21.548Z,99.90
2019-01-06T01:45:08.112Z,99.90
2019-01-06T01:47:44.189Z,99.90
2019-01-06T01:50:15.505Z,99.90
2019-01-06T01:52:48.605Z,99.90
2019-01-06T01:55:33.254Z,99.90
2019-01-06T01:58:19.537Z,99.90
2019-01-06T02:00:58.077Z,99.90
2019-01-06T02:03:44.654Z,99.90
2019-01-06T02:06:37.648Z,99.90
2019-01-06T02:09:14.789Z,99.90
2019-01-06T02:11:47.549Z,99.90
2019-01-06T02:14:23.506Z,99.90
2019-01-06T02:17:05.666Z,99.90
2019-01-06T02:19:46.970Z,99.90
2019-01-06T02:22:36.300Z,99.90
2019-01-06T02:25:09.210Z,99.90
2019-01-06T02:27:44.826Z,99.90
2019-01-06T02:30:31.201Z,99.90
2019-01-06T02:33:07.261Z,99.90
2019-01-06T02:35:53.420Z,99.90
2019-01-06T02:38:23.506Z,99.90
2019-01-06T02:41:09.833Z,99.90
2019-01-06T02:43:46.029Z,99.90
2019-01-06T02:46:37.322Z,99.90
2019-01-06T02:49:23.534Z,99.90
2019-01-06T02:52:12.465Z,99.90
2019-01-06T02:54:42.546Z,99.90
2019-01-06T02:57:15.318Z,99.90
2019-01-06T02:59:48.076Z,99.90
2019-01-06T03:02:36.305Z,99.90
2019-01-06T03:05:26.917Z,99.90
2019-01-06T03:07:57.014Z,99.90
2019-01-06T03:10:32.110Z,99.90
2019-01-06T03:13:07.954Z,99.90
2019-01-06T03:15:50.193Z,99.90
2019-01-06T03:18:23.164Z,99.90
2019-01-06T03:21:02.185Z,99.90
2019-01-06T03:23:37.838Z,99.90
2019-01-06T03:26:19.908Z,99.90
2019-01-06T03:29:12.253Z,99.90
2019-01-06T03:31:45.346Z,99.90
2019-01-06T03:34:34.693Z,99.90
2019-01-06T03:37:07.860Z,99.90
2019-01-06T03:39:40.564Z,99.90
2019-01-06T03:42:27.824Z,99.90
2019-01-06T03:45:00.550Z,99.90
2019-01-06T03:47:52.970Z,99.90
2019-01-06T03:50:35.329Z,99.90
2019-01-06T03:53:14.153Z,99.90
2019-01-06T03:55:46.977Z,99.90
2019-01-06T03:58:33.311Z,99.90
2019-01-06T04:01:12.302Z,99.90
2019-01-06T04:03:46.900Z,99.90
2019-01-06T04:06:39.659Z,99.90
2019-01-06T04:09:18.089Z,99.90
2019-01-06T04:11:53.890Z,99.90
2019-01-06T04:14:35.529Z,99.90
2019-01-06T04:17:11.677Z,99.90
2019-01-06T04:19:47.461Z,99.90
2019-01-06T04:22:34.002Z,99.90
2019-01-06T04:25:04.048Z,99.90
2019-01-06T04:27:42.959Z,99.90
2019-01-06T04:30:21.973Z,99.90
2019-01-06T04:32:58.069Z,99.90
2019-01-06T04:35:31.220Z,99.90
2019-01-06T04:38:14.661Z,99.90
2019-01-06T04:41:00.916Z,99.90
2019-01-06T04:43:48.228Z,99.90
2019-01-06T04:46:42.386Z,99.90
2019-01-06T04:49:21.423Z,99.90
2019-01-06T04:52:08.058Z,99.90
2019-01-06T04:54:56.297Z,99.90
2019-01-06T04:57:32.182Z,99.90
2019-01-06T05:00:18.821Z,99.90
2019-01-06T05:02:48.928Z,99.90
2019-01-06T05:05:38.871Z,99.90
2019-01-06T05:08:25.474Z,99.90
2019-01-06T05:11:01.323Z,99.90
2019-01-06T05:13:43.515Z,99.90
2019-01-06T05:16:22.246Z,99.90
2019-01-06T05:19:01.379Z,99.90
2019-01-06T05:21:49.277Z,99.90
2019-01-06T05:24:28.511Z,99.90
2019-01-06T05:27:20.529Z,99.90
2019-01-06T05:29:57.139Z,99.90
2019-01-06T05:32:30.083Z,99.90
2019-01-06T05:35:06.305Z,99.90
2019-01-06T05:37:45.169Z,99.90
2019-01-06T05:40:31.916Z,99.90
2019-01-06T05:43:01.973Z,99.90
2019-01-06T05:45:48.387Z,99.90
2019-01-06T05:48:27.508Z,99.90
2019-01-06T05:51:06.308Z,99.90
2019-01-06T05:53:52.714Z,99.90
2019-01-06T05:56:34.257Z,99.90
2019-01-06T05:59:10.050Z,99.90
2019-01-06T06:01:42.697Z,99.90
2019-01-06T06:04:14.424Z,99.90
2019-01-06T06:06:56.501Z,99.90
2019-01-06T06:09:32.484Z,99.90
2019-01-06T06:12:11.474Z,99.90
2019-01-06T06:15:02.313Z,99.90
2019-01-06T06:17:50.509Z,99.90
2019-01-06T06:20:40.030Z,99.90
2019-01-06T06:23:37.672Z,99.90
2019-01-06T06:26:22.772Z,99.90
2019-01-06T06:29:09.297Z,99.90
2019-01-06T06:31:47.909Z,99.90
2019-01-06T06:34:29.950Z,99.90
2019-01-06T06:37:14.969Z,99.90
2019-01-06T06:40:00.185Z,99.90
2019-01-06T06:42:58.638Z,99.90
2019-01-06T06:45:34.633Z,99.90
2019-01-06T06:48:13.174Z,99.90
2019-01-06T06:51:12.970Z,99.90
2019-01-06T06:54:05.196Z,99.90
2019-01-06T06:56:42.482Z,99.90
2019-01-06T06:59:16.402Z,99.90
2019-01-06T07:02:27.693Z,99.90
2019-01-06T07:05:11.749Z,99.90
2019-01-06T07:07:58.399Z,99.90
2019-01-06T07:10:28.444Z,99.90
2019-01-06T07:13:15.568Z,99.90
2019-01-06T07:15:48.314Z,99.90
2019-01-06T07:18:21.517Z,99.90
2019-01-06T07:21:07.757Z,99.90
2019-01-06T07:23:54.486Z,99.90
2019-01-06T07:26:30.365Z,99.90
2019-01-06T07:29:17.254Z,99.90
2019-01-06T07:32:06.548Z,99.90
2019-01-06T07:34:51.816Z,99.90
2019-01-06T07:37:37.002Z,99.90
2019-01-06T07:40:12.309Z,99.90
2019-01-06T07:42:48.010Z,99.90
2019-01-06T07:45:43.287Z,99.90
2019-01-06T07:48:19.050Z,99.90
2019-01-06T07:51:09.083Z,99.90
2019-01-06T07:53:29.377Z,99.70
2019-01-06T07:56:05.082Z,99.20
2019-01-06T07:58:35.126Z,99.20
2019-01-06T08:01:24.049Z,99.10
2019-01-06T08:03:57.070Z,99.10
2019-01-06T08:06:46.517Z,98.90
2019-01-06T08:09:16.602Z,99.10
2019-01-06T08:12:05.081Z,98.90
2019-01-06T08:14:41.126Z,99.00
2019-01-06T08:17:11.187Z,98.80
2019-01-06T08:19:41.257Z,98.50
2019-01-06T08:22:13.840Z,98.60
2019-01-06T08:24:55.904Z,98.50
2019-01-06T08:27:45.502Z,98.30
2019-01-06T08:30:27.727Z,98.00
2019-01-06T08:33:14.250Z,98.20
2019-01-06T08:36:02.265Z,98.10
2019-01-06T08:38:40.999Z,98.10
2019-01-06T08:41:19.597Z,96.80
2019-01-06T08:43:49.673Z,95.50
2019-01-06T08:46:32.031Z,92.60
2019-01-06T08:49:04.785Z,92.70
2019-01-06T08:51:49.590Z,91.90
2019-01-06T08:54:19.646Z,91.10
2019-01-06T08:57:04.968Z,90.90
2019-01-06T08:59:54.144Z,86.90
2019-01-06T09:02:41.477Z,85.20
2019-01-06T09:05:11.534Z,79.50
2019-01-06T09:07:56.405Z,77.70
2019-01-06T09:10:32.550Z,75.40
2019-01-06T09:13:05.509Z,78.60
2019-01-06T09:15:38.268Z,80.60
2019-01-06T09:18:20.622Z,81.40
2019-01-06T09:20:59.937Z,81.70
2019-01-06T09:23:33.005Z,84.90
2019-01-06T09:26:22.579Z,86.00
2019-01-06T09:29:09.138Z,88.10
2019-01-06T09:32:07.274Z,89.30
2019-01-06T09:34:40.098Z,90.30
2019-01-06T09:37:16.165Z,90.30
2019-01-06T09:40:06.553Z,90.70
2019-01-06T09:42:45.800Z,91.20
2019-01-06T09:45:37.888Z,92.10
2019-01-06T09:48:26.037Z,92.70
2019-01-06T09:50:58.977Z,91.90
2019-01-06T09:53:29.326Z,92.00
2019-01-06T09:56:26.478Z,91.70
2019-01-06T09:58:47.612Z,91.40
2019-01-06T10:01:23.429Z,91.40
2019-01-06T10:04:11.402Z,91.00
2019-01-06T10:06:50.358Z,90.00
2019-01-06T10:09:36.898Z,90.20
2019-01-06T10:12:10.189Z,90.40
2019-01-06T10:14:40.273Z,90.50
2019-01-06T10:17:13.292Z,90.20
2019-01-06T10:19:46.521Z,90.40
2019-01-06T10:22:33.294Z,90.50
2019-01-06T10:25:03.609Z,90.70
2019-01-06T10:27:49.853Z,90.20
2019-01-06T10:30:28.828Z,90.70
2019-01-06T10:33:07.202Z,90.20
2019-01-06T10:35:56.518Z,90.00
2019-01-06T10:38:26.562Z,90.10
2019-01-06T10:41:02.398Z,89.40
2019-01-06T10:43:57.746Z,87.30
2019-01-06T10:46:46.181Z,87.60
2019-01-06T10:49:21.824Z,85.30
2019-01-06T10:51:57.505Z,84.70
2019-01-06T10:54:42.245Z,83.70
2019-01-06T10:57:12.321Z,82.70
2019-01-06T10:59:57.596Z,82.10
2019-01-06T11:02:44.081Z,80.90
2019-01-06T11:05:14.166Z,80.50
2019-01-06T11:07:57.546Z,77.20
2019-01-06T11:10:36.784Z,77.70
2019-01-06T11:13:09.646Z,77.10
2019-01-06T11:15:48.609Z,76.90
2019-01-06T11:18:33.858Z,76.60
2019-01-06T11:21:12.970Z,74.10
2019-01-06T11:23:59.344Z,73.80
2019-01-06T11:26:46.265Z,74.90
2019-01-06T11:29:19.312Z,74.10
2019-01-06T11:32:01.400Z,72.10
2019-01-06T11:34:37.406Z,69.70
2019-01-06T11:37:16.546Z,64.20
2019-01-06T11:39:59.794Z,63.80
2019-01-06T11:42:29.811Z,62.00
2019-01-06T11:45:11.843Z,62.00
2019-01-06T11:47:58.677Z,62.00
2019-01-06T11:50:34.738Z,61.70
2019-01-06T11:53:07.707Z,62.50
2019-01-06T11:55:42.039Z,63.10
2019-01-06T11:58:28.569Z,64.10
2019-01-06T12:01:15.325Z,64.60
2019-01-06T12:04:05.972Z,63.80
2019-01-06T12:06:51.334Z,62.70
2019-01-06T12:09:24.216Z,60.00
2019-01-06T12:12:03.502Z,60.10
2019-01-06T12:14:47.076Z,59.50
2019-01-06T12:17:22.909Z,60.70
2019-01-06T12:20:09.129Z,62.40
2019-01-06T12:22:58.713Z,64.10
2019-01-06T12:25:48.211Z,63.40
2019-01-06T12:28:21.146Z,63.00
2019-01-06T12:31:07.515Z,65.60
2019-01-06T12:33:39.131Z,66.50
2019-01-06T12:36:21.990Z,68.00
2019-01-06T12:39:11.576Z,69.00
2019-01-06T12:41:41.631Z,69.80
2019-01-06T12:44:14.467Z,70.60
2019-01-06T12:46:44.544Z,70.50
2019-01-06T12:49:31.205Z,70.40
2019-01-06T12:52:18.022Z,70.60
2019-01-06T12:54:49.644Z,69.40
2019-01-06T12:57:31.933Z,69.40
2019-01-06T13:00:25.745Z,69.20
2019-01-06T13:02:55.823Z,71.30
2019-01-06T13:05:45.057Z,72.50
2019-01-06T13:08:33.242Z,74.00
2019-01-06T13:11:19.406Z,75.70
2019-01-06T13:13:51.898Z,77.10
2019-01-06T13:16:27.541Z,78.40
2019-01-06T13:19:00.468Z,78.80
2019-01-06T13:21:30.516Z,78.30
2019-01-06T13:24:16.805Z,79.20
2019-01-06T13:27:03.351Z,80.10
2019-01-06T13:29:36.533Z,82.00
2019-01-06T13:32:19.179Z,82.00
2019-01-06T13:34:52.240Z,83.20
2019-01-06T13:37:22.299Z,83.80
2019-01-06T13:40:08.761Z,84.50
2019-01-06T13:42:55.334Z,84.40
2019-01-06T13:45:37.736Z,85.70
2019-01-06T13:48:11.741Z,85.50
2019-01-06T13:50:53.645Z,85.40
2019-01-06T13:53:39.894Z,85.30
2019-01-06T13:56:34.489Z,85.40
2019-01-06T13:59:21.099Z,85.50
2019-01-06T14:01:57.537Z,85.10
2019-01-06T14:04:30.700Z,85.40
2019-01-06T14:07:15.795Z,86.10
2019-01-06T14:09:45.836Z,85.20
2019-01-06T14:12:19.056Z,86.50
2019-01-06T14:14:51.934Z,87.10
2019-01-06T14:17:38.616Z,88.00
2019-01-06T14:20:16.699Z,89.00
2019-01-06T14:22:46.169Z,90.00
2019-01-06T14:25:32.894Z,90.40
2019-01-06T14:28:19.501Z,90.50
2019-01-06T14:31:01.765Z,91.10
2019-01-06T14:33:46.904Z,91.60
2019-01-06T14:36:16.998Z,92.30
2019-01-06T14:38:53.162Z,92.60
2019-01-06T14:41:35.329Z,92.60
2019-01-06T14:44:11.275Z,92.70
2019-01-06T14:46:57.593Z,93.20
2019-01-06T14:49:45.887Z,93.10
2019-01-06T14:52:32.046Z,93.30
2019-01-06T14:55:18.248Z,93.40
2019-01-06T14:57:51.185Z,93.80
2019-01-06T15:00:39.019Z,93.80
2019-01-06T15:03:25.662Z,94.00
2019-01-06T15:06:01.481Z,94.10
2019-01-06T15:08:47.533Z,94.50
2019-01-06T15:11:35.340Z,94.70
2019-01-06T15:14:21.880Z,94.60
2019-01-06T15:17:11.316Z,94.90
2019-01-06T15:19:44.574Z,95.20
2019-01-06T15:22:32.750Z,95.40
2019-01-06T15:25:02.814Z,95.70
2019-01-06T15:27:49.456Z,96.20
2019-01-06T15:30:35.724Z,96.20
2019-01-06T15:33:22.564Z,96.60
2019-01-06T15:35:55.208Z,96.80
2019-01-06T15:38:42.009Z,96.80
2019-01-06T15:41:28.614Z,96.90
2019-01-06T15:44:10.158Z,97.00
2019-01-06T15:46:49.052Z,97.10
2019-01-06T15:49:21.782Z,97.20
2019-01-06T15:51:54.785Z,97.30
2019-01-06T15:54:38.997Z,97.50
2019-01-06T15:57:11.988Z,97.40
2019-01-06T15:59:50.870Z,97.70
2019-01-06T16:02:39.128Z,97.80
2019-01-06T16:05:25.718Z,98.00
2019-01-06T16:08:07.220Z,98.10
2019-01-06T16:10:37.310Z,98.20
2019-01-06T16:13:23.721Z,98.30
2019-01-06T16:16:11.905Z,98.50
2019-01-06T16:18:58.570Z,98.60
2019-01-06T16:21:31.166Z,98.70
2019-01-06T16:24:19.718Z,98.80
2019-01-06T16:26:55.973Z,98.90
2019-01-06T16:29:48.741Z,99.10
2019-01-06T16:32:35.477Z,99.20
2019-01-06T16:35:11.955Z,99.30
2019-01-06T16:37:58.145Z,99.70
2019-01-06T16:40:44.906Z,99.50
2019-01-06T16:43:30.731Z,99.60
2019-01-06T16:46:15.809Z,99.80
2019-01-06T16:48:45.893Z,99.90
2019-01-06T16:51:18.632Z,99.90
2019-01-06T16:54:05.865Z,99.90
2019-01-06T16:56:35.916Z,99.90
2019-01-06T16:59:05.992Z,99.90
2019-01-06T17:01:54.691Z,99.90
2019-01-06T17:04:38.005Z,99.90
2019-01-06T17:07:27.113Z,99.90
2019-01-06T17:10:00.170Z,99.90
2019-01-06T17:12:30.535Z,99.90
2019-01-06T17:15:12.845Z,99.90
2019-01-06T17:17:59.165Z,99.90
2019-01-06T17:20:45.252Z,99.90
2019-01-06T17:23:33.986Z,99.90
2019-01-06T17:26:12.964Z,99.90
2019-01-06T17:28:55.114Z,99.90
2019-01-06T17:31:33.426Z,99.90
2019-01-06T17:34:06.153Z,99.90
2019-01-06T17:36:48.063Z,99.90
2019-01-06T17:39:23.658Z,99.90
2019-01-06T17:41:59.824Z,99.90
2019-01-06T17:44:43.057Z,99.90
2019-01-06T17:47:24.410Z,99.90
2019-01-06T17:50:00.681Z,99.90
2019-01-06T17:52:43.169Z,99.90
2019-01-06T17:55:25.066Z,99.90
2019-01-06T17:58:11.688Z,99.90
2019-01-06T18:01:01.110Z,99.90
2019-01-06T18:03:46.368Z,99.90
2019-01-06T18:06:19.194Z,99.90
2019-01-06T18:09:09.973Z,99.90
2019-01-06T18:11:48.311Z,99.90
2019-01-06T18:14:21.345Z,99.90
2019-01-06T18:17:02.702Z,99.90
2019-01-06T18:19:47.417Z,99.90
2019-01-06T18:22:23.559Z,99.90
2019-01-06T18:25:02.353Z,99.90
2019-01-06T18:27:41.737Z,99.90
2019-01-06T18:30:20.116Z,99.90
2019-01-06T18:32:55.978Z,99.90
2019-01-06T18:35:43.096Z,99.90
2019-01-06T18:38:29.720Z,99.90
2019-01-06T18:41:06.059Z,99.90
2019-01-06T18:43:48.178Z,99.90
2019-01-06T18:46:24.006Z,99.90
2019-01-06T18:49:13.255Z,99.90
2019-01-06T18:52:02.367Z,99.90
2019-01-06T18:54:29.514Z,99.90
2019-01-06T18:57:15.793Z,99.90
2019-01-06T18:59:54.360Z,99.90
2019-01-06T19:02:24.460Z,99.90
2019-01-06T19:05:09.645Z,99.90
2019-01-06T19:07:42.368Z,99.90
2019-01-06T19:10:28.778Z,99.90
2019-01-06T19:13:05.037Z,99.90
2019-01-06T19:15:35.088Z,99.90
2019-01-06T19:18:12.833Z,99.90
2019-01-06T19:21:00.325Z,99.90
2019-01-06T19:23:42.222Z,99.90
2019-01-06T19:26:27.337Z,99.90
2019-01-06T19:29:08.496Z,99.90
2019-01-06T19:31:54.646Z,99.90
2019-01-06T19:34:35.873Z,99.90
2019-01-06T19:37:14.673Z,99.90
2019-01-06T19:39:45.047Z,99.90
2019-01-06T19:42:31.372Z,99.90
2019-01-06T19:45:19.556Z,99.90
2019-01-06T19:47:58.277Z,99.90
2019-01-06T19:50:34.560Z,99.90
2019-01-06T19:53:22.441Z,99.90
2019-01-06T19:55:57.984Z,99.90
2019-01-06T19:58:43.071Z,99.90
2019-01-06T20:01:25.018Z,99.90
2019-01-06T20:04:07.410Z,99.90
2019-01-06T20:06:40.189Z,99.90
2019-01-06T20:09:12.966Z,99.90
2019-01-06T20:11:48.764Z,99.90
2019-01-06T20:14:27.575Z,99.90
2019-01-06T20:16:57.662Z,99.90
2019-01-06T20:19:27.713Z,99.90
2019-01-06T20:22:00.498Z,99.90
2019-01-06T20:24:36.593Z,99.90
2019-01-06T20:27:18.564Z,99.90
2019-01-06T20:29:57.598Z,99.90
2019-01-06T20:32:33.521Z,99.90
2019-01-06T20:35:06.971Z,99.90
2019-01-06T20:37:40.057Z,99.90
2019-01-06T20:40:12.848Z,99.90
2019-01-06T20:42:48.752Z,99.90
2019-01-06T20:45:38.253Z,99.90
2019-01-06T20:48:24.853Z,99.90
2019-01-06T20:50:54.910Z,99.90
2019-01-06T20:53:43.038Z,99.90
2019-01-06T20:56:30.055Z,99.90
2019-01-06T20:59:09.394Z,99.90
2019-01-06T21:01:39.460Z,99.90
2019-01-06T21:04:25.981Z,99.90
2019-01-06T21:07:12.586Z,99.90
2019-01-06T21:09:42.653Z,99.90
2019-01-06T21:12:30.454Z,99.90
2019-01-06T21:15:18.312Z,99.90
2019-01-06T21:18:07.132Z,99.90
2019-01-06T21:20:45.517Z,99.90
2019-01-06T21:23:21.412Z,99.90
2019-01-06T21:26:07.864Z,99.90
2019-01-06T21:28:49.841Z,99.90
2019-01-06T21:31:25.908Z,99.90
2019-01-06T21:33:55.986Z,99.90
2019-01-06T21:36:42.436Z,99.90
2019-01-06T21:39:31.354Z,99.90
2019-01-06T21:42:17.008Z,99.90
2019-01-06T21:44:55.404Z,99.90
2019-01-06T21:47:31.293Z,99.90
2019-01-06T21:50:07.137Z,99.90
2019-01-06T21:52:37.227Z,99.90
2019-01-06T21:55:30.187Z,99.90
2019-01-06T21:58:02.952Z,99.90
2019-01-06T22:00:33.038Z,99.90
2019-01-06T22:03:23.935Z,99.90
2019-01-06T22:05:59.901Z,99.90
2019-01-06T22:08:38.688Z,99.90
2019-01-06T22:11:11.989Z,99.90
2019-01-06T22:13:58.727Z,99.90
2019-01-06T22:16:28.768Z,99.90
2019-01-06T22:19:10.474Z,99.90
2019-01-06T22:21:52.454Z,99.90
2019-01-06T22:24:22.510Z,99.90
2019-01-06T22:27:09.017Z,99.90
2019-01-06T22:29:53.748Z,99.90
2019-01-06T22:32:35.193Z,99.90
2019-01-06T22:35:28.980Z,99.90
2019-01-06T22:38:04.692Z,99.90
2019-01-06T22:40:49.976Z,99.90
2019-01-06T22:43:36.259Z,99.90
2019-01-06T22:46:30.642Z,99.90
2019-01-06T22:49:18.921Z,99.90
2019-01-06T22:51:51.718Z,99.90
2019-01-06T22:54:42.945Z,99.90
2019-01-06T22:57:35.061Z,99.90
2019-01-06T23:00:32.229Z,99.90
2019-01-06T23:03:27.082Z,99.90
2019-01-06T23:05:51.793Z,99.90
2019-01-06T23:08:43.768Z,99.90
2019-01-06T23:11:26.149Z,99.90
2019-01-06T23:14:16.273Z,99.90
2019-01-06T23:16:52.587Z,99.90
2019-01-06T23:19:39.499Z,99.90
2019-01-06T23:22:28.963Z,99.90
2019-01-06T23:25:01.952Z,99.90
2019-01-06T23:27:49.478Z,99.90
2019-01-06T23:30:34.369Z,99.90
2019-01-06T23:33:10.950Z,99.90
2019-01-06T23:35:56.445Z,99.90
2019-01-06T23:38:48.319Z,99.90
2019-01-06T23:41:27.177Z,99.90
2019-01-06T23:44:00.179Z,99.90
2019-01-06T23:46:37.098Z,99.90
2019-01-06T23:49:07.270Z,99.90
2019-01-06T23:51:54.669Z,99.90
2019-01-06T23:54:45.622Z,99.90
2019-01-06T23:57:15.967Z,99.90
